Time;durP1;ratioP1;P1;durP2;ratioP2;P2;SDS_P1;SDS_P2;PMS_P1;PMS_P2;Temp;Humidity;BMP_temperature;BMP_pressure;BME280_temperature;BME280_humidity;BME280_pressure;Samples;Min_cycle;Max_cycle;Signal;HPM_P1;HPM_P2
2022/09/12 00:00:06;;;;;;;39.17;24.80;;;10.40;99.90;;;;;;6246498;23;20051;-87
2022/09/12 00:02:54;;;;;;;35.45;24.50;;;10.40;99.90;;;;;;6249597;23;20101;-87
2022/09/12 00:05:46;;;;;;;36.90;23.17;;;10.40;99.90;;;;;;6224879;23;20050;-87
2022/09/12 00:08:33;;;;;;;38.70;23.20;;;10.30;99.90;;;;;;6247706;23;20039;-87
2022/09/12 00:11:21;;;;;;;37.80;22.88;;;10.30;99.90;;;;;;6246729;23;20028;-86
2022/09/12 00:14:11;;;;;;;38.60;23.10;;;10.30;99.90;;;;;;6246520;23;20024;-86
2022/09/12 00:17:01;;;;;;;39.22;22.58;;;10.30;99.90;;;;;;6245572;23;20095;-88
2022/09/12 00:19:51;;;;;;;36.15;22.83;;;10.20;99.90;;;;;;6227094;23;20023;-86
2022/09/12 00:22:38;;;;;;;42.78;24.13;;;10.20;99.90;;;;;;6247986;23;20455;-87
2022/09/12 00:25:25;;;;;;;34.35;22.88;;;10.10;99.90;;;;;;6225779;23;20024;-84
2022/09/12 00:28:16;;;;;;;41.35;24.70;;;10.10;99.90;;;;;;6246829;23;20351;-88
2022/09/12 00:31:06;;;;;;;44.38;25.38;;;10.10;1.00;;;;;;6247162;23;20111;-87
2022/09/12 00:33:56;;;;;;;35.90;23.40;;;10.20;1.00;;;;;;6246658;23;20024;-88
2022/09/12 00:36:43;;;;;;;39.17;25.23;;;10.20;1.00;;;;;;6248161;23;20024;-86
2022/09/12 00:39:30;;;;;;;33.60;22.90;;;10.20;1.00;;;;;;6248917;22;20024;-87
2022/09/12 00:42:19;;;;;;;35.90;22.95;;;10.20;1.00;;;;;;6226596;23;20034;-86
2022/09/12 00:45:24;;;;;;;37.80;24.42;;;10.10;1.00;;;;;;6225826;23;20046;-87
2022/09/12 00:48:26;;;;;;;43.42;26.25;;;10.10;1.00;;;;;;6247017;23;20068;-85
2022/09/12 00:51:17;;;;;;;41.75;24.65;;;10.10;1.00;;;;;;6251144;23;20020;-88
2022/09/12 00:54:12;;;;;;;42.53;25.80;;;10.20;1.00;;;;;;6249370;23;20103;-88
2022/09/12 00:57:03;;;;;;;44.42;24.98;;;10.10;1.00;;;;;;6249117;23;20030;-87
2022/09/12 00:59:55;;;;;;;42.47;25.10;;;9.90;1.00;;;;;;6250318;23;20099;-85
2022/09/12 01:03:08;;;;;;;39.70;24.25;;;9.90;1.00;;;;;;6247228;23;20024;-85
2022/09/12 01:06:01;;;;;;;39.67;24.20;;;9.80;1.00;;;;;;6249190;22;20380;-86
2022/09/12 01:08:52;;;;;;;39.33;24.45;;;9.60;1.00;;;;;;6247247;23;20051;-86
2022/09/12 01:11:40;;;;;;;36.00;23.02;;;9.70;1.00;;;;;;6246494;23;20040;-87
2022/09/12 01:14:28;;;;;;;40.78;23.30;;;9.60;1.00;;;;;;6224879;23;20020;-86
2022/09/12 01:17:15;;;;;;;47.08;25.65;;;9.70;1.00;;;;;;6246247;23;20024;-86
2022/09/12 01:20:21;;;;;;;36.88;23.70;;;9.90;1.00;;;;;;6246365;23;20111;-87
2022/09/12 01:23:31;;;;;;;40.40;24.65;;;9.90;1.00;;;;;;6223722;23;20028;-87
2022/09/12 01:26:54;;;;;;;40.78;24.48;;;9.90;1.00;;;;;;6224849;23;20484;-87
2022/09/12 01:29:44;;;;;;;38.80;23.42;;;9.90;1.00;;;;;;6247601;23;20035;-86
2022/09/12 01:32:40;;;;;;;35.03;22.38;;;9.90;1.00;;;;;;6248682;22;20092;-88
2022/09/12 01:35:53;;;;;;;38.17;23.23;;;9.80;1.00;;;;;;6225161;23;20099;-87
2022/09/12 01:38:58;;;;;;;35.28;21.13;;;9.60;1.00;;;;;;6247274;23;20024;-86
2022/09/12 01:42:08;;;;;;;41.22;22.77;;;9.50;1.00;;;;;;6247534;23;20028;-87
2022/09/12 01:45:10;;;;;;;33.17;20.73;;;9.40;1.00;;;;;;6246764;23;20028;-87
2022/09/12 01:48:20;;;;;;;36.22;22.55;;;9.30;1.00;;;;;;6247983;23;20034;-87
2022/09/12 01:51:13;;;;;;;37.53;22.80;;;9.40;1.00;;;;;;6247928;22;20020;-84
2022/09/12 01:54:18;;;;;;;38.92;22.23;;;9.50;1.00;;;;;;6249576;23;20396;-86
2022/09/12 01:57:18;;;;;;;33.78;21.98;;;9.50;1.00;;;;;;6226712;23;20372;-86
2022/09/12 02:00:10;;;;;;;34.17;21.95;;;9.30;1.00;;;;;;6225248;23;20476;-86
2022/09/12 02:03:20;;;;;;;35.95;21.83;;;9.20;1.00;;;;;;6225557;23;20024;-86
2022/09/12 02:06:29;;;;;;;32.85;21.48;;;9.20;1.00;;;;;;6246803;23;20036;-86
2022/09/12 02:09:33;;;;;;;36.65;22.27;;;9.20;1.00;;;;;;6226121;23;20099;-86
2022/09/12 02:12:26;;;;;;;38.67;23.20;;;9.20;1.00;;;;;;6225787;23;20035;-86
2022/09/12 02:15:17;;;;;;;38.13;23.17;;;9.20;1.00;;;;;;6245538;23;20104;-86
2022/09/12 02:18:05;;;;;;;37.47;23.30;;;9.10;1.00;;;;;;6246586;23;20107;-86
2022/09/12 02:20:55;;;;;;;50.45;26.63;;;9.10;1.00;;;;;;6246857;23;20024;-86
2022/09/12 02:23:47;;;;;;;42.85;23.33;;;9.30;1.00;;;;;;6248708;23;20020;-86
2022/09/12 02:26:43;;;;;;;45.53;26.05;;;9.40;1.00;;;;;;6252231;23;20072;-86
2022/09/12 02:29:39;;;;;;;41.47;25.60;;;9.40;1.00;;;;;;6249809;23;20330;-86
2022/09/12 02:32:48;;;;;;;43.53;26.50;;;9.30;1.00;;;;;;6251606;23;20024;-86
2022/09/12 02:35:37;;;;;;;45.13;25.65;;;9.30;1.00;;;;;;6249933;23;20095;-86
2022/09/12 02:38:29;;;;;;;41.88;25.13;;;9.20;1.00;;;;;;6248094;23;20024;-86
2022/09/12 02:41:19;;;;;;;45.83;25.52;;;9.20;1.00;;;;;;6246440;23;20430;-86
2022/09/12 02:44:06;;;;;;;45.20;25.67;;;9.10;1.00;;;;;;6244559;23;20038;-86
2022/09/12 02:47:04;;;;;;;43.58;24.73;;;9.10;1.00;;;;;;6248373;23;20035;-86
2022/09/12 02:49:52;;;;;;;33.95;21.50;;;9.30;1.00;;;;;;6250008;23;20031;-86
2022/09/12 02:52:43;;;;;;;36.78;21.88;;;9.30;1.00;;;;;;6251427;23;20035;-86
2022/09/12 02:55:36;;;;;;;44.03;23.67;;;9.20;1.00;;;;;;6249671;23;20027;-86
2022/09/12 02:58:27;;;;;;;35.60;21.88;;;9.00;1.00;;;;;;6247581;23;20319;-86
2022/09/12 03:01:49;;;;;;;31.65;20.73;;;8.90;1.00;;;;;;6226292;23;20028;-86
2022/09/12 03:05:16;;;;;;;36.67;22.52;;;8.90;1.00;;;;;;6246146;23;20035;-86
2022/09/12 03:08:24;;;;;;;42.22;25.17;;;9.00;1.00;;;;;;6246429;23;20024;-86
2022/09/12 03:11:20;;;;;;;43.03;24.63;;;9.10;1.00;;;;;;6245804;23;20470;-85
2022/09/12 03:14:36;;;;;;;50.15;26.30;;;9.00;1.00;;;;;;6223078;23;20031;-85
2022/09/12 03:17:30;;;;;;;46.10;25.95;;;8.90;1.00;;;;;;6223989;23;20020;-85
2022/09/12 03:20:38;;;;;;;51.63;28.33;;;9.00;1.00;;;;;;6246536;23;20032;-87
2022/09/12 03:23:34;;;;;;;48.13;26.02;;;9.10;1.00;;;;;;6244692;23;20047;-86
2022/09/12 03:26:29;;;;;;;50.65;27.13;;;9.10;1.00;;;;;;6225008;23;20030;-86
2022/09/12 03:29:23;;;;;;;54.15;26.10;;;9.00;1.00;;;;;;6244812;23;20028;-86
2022/09/12 03:32:14;;;;;;;52.92;27.70;;;8.90;1.00;;;;;;6245656;23;20431;-87
2022/09/12 03:35:01;;;;;;;59.45;28.50;;;8.90;1.00;;;;;;6246449;23;20034;-87
2022/09/12 03:37:50;;;;;;;48.67;26.23;;;9.00;1.00;;;;;;6244667;23;20027;-87
2022/09/12 03:40:38;;;;;;;45.67;25.17;;;9.10;1.00;;;;;;6245153;23;20084;-86
2022/09/12 03:43:26;;;;;;;45.92;25.48;;;9.10;1.00;;;;;;6245930;23;20028;-87
2022/09/12 03:46:14;;;;;;;48.72;24.77;;;9.10;1.00;;;;;;6246701;23;20027;-86
2022/09/12 03:49:03;;;;;;;48.45;25.88;;;9.10;1.00;;;;;;6245012;23;20021;-87
2022/09/12 03:51:50;;;;;;;54.15;28.05;;;9.00;1.00;;;;;;6247602;22;20016;-86
2022/09/12 03:54:38;;;;;;;59.58;29.17;;;8.80;1.00;;;;;;6222974;23;20472;-86
2022/09/12 03:57:25;;;;;;;61.28;29.67;;;8.80;1.00;;;;;;6245402;23;20024;-86
2022/09/12 04:00:13;;;;;;;54.80;28.70;;;8.70;1.00;;;;;;6223913;23;20031;-86
2022/09/12 04:03:07;;;;;;;61.13;30.10;;;8.70;1.00;;;;;;6244721;23;20050;-87
2022/09/12 04:05:56;;;;;;;67.57;30.80;;;8.80;1.00;;;;;;6223142;23;20051;-86
2022/09/12 04:08:51;;;;;;;69.03;31.60;;;8.80;1.00;;;;;;6247989;23;20047;-86
2022/09/12 04:11:41;;;;;;;67.18;31.20;;;8.70;1.00;;;;;;6246437;23;20024;-86
2022/09/12 04:14:28;;;;;;;69.68;32.00;;;8.60;1.00;;;;;;6246252;23;20545;-86
2022/09/12 04:17:15;;;;;;;61.60;31.10;;;8.60;1.00;;;;;;6246879;23;20099;-86
2022/09/12 04:20:03;;;;;;;59.22;29.85;;;8.60;1.00;;;;;;6224749;23;20422;-86
2022/09/12 04:22:50;;;;;;;49.83;27.05;;;8.70;1.00;;;;;;6227378;23;20375;-85
2022/09/12 04:25:43;;;;;;;52.28;27.38;;;8.80;1.00;;;;;;6227732;23;20091;-86
2022/09/12 04:28:35;;;;;;;54.30;26.05;;;8.70;2.90;;;;;;6225963;23;20051;-85
2022/09/12 04:31:23;;;;;;;56.35;27.85;;;8.70;1.80;;;;;;6226654;23;20028;-86
2022/09/12 04:34:10;;;;;;;65.78;30.83;;;8.70;1.00;;;;;;6246332;23;20035;-86
2022/09/12 04:37:05;;;;;;;72.30;32.33;;;8.60;1.80;;;;;;6248611;23;20058;-86
2022/09/12 04:39:56;;;;;;;68.63;31.60;;;8.60;1.00;;;;;;6248661;23;20103;-86
2022/09/12 04:42:44;;;;;;;68.32;33.50;;;8.50;1.00;;;;;;6244825;23;20098;-86
2022/09/12 04:45:32;;;;;;;70.57;33.13;;;8.70;1.00;;;;;;6225594;23;20103;-86
2022/09/12 04:48:21;;;;;;;73.63;32.88;;;8.80;1.00;;;;;;6246212;23;20024;-85
2022/09/12 04:51:14;;;;;;;79.20;34.13;;;8.80;4.50;;;;;;6245240;23;20063;-86
2022/09/12 04:54:08;;;;;;;75.45;34.35;;;8.70;4.60;;;;;;6248065;23;20024;-85
2022/09/12 04:56:56;;;;;;;64.15;30.50;;;8.70;2.90;;;;;;6247545;23;20031;-88
2022/09/12 04:59:45;;;;;;;58.05;30.08;;;8.90;2.10;;;;;;6248122;23;20048;-85
2022/09/12 05:02:33;;;;;;;63.15;29.27;;;8.80;5.30;;;;;;6245044;23;20178;-86
2022/09/12 05:05:20;;;;;;;69.20;32.33;;;8.80;5.90;;;;;;6223605;23;20028;-84
2022/09/12 05:08:07;;;;;;;68.50;32.47;;;8.90;5.30;;;;;;6246919;23;20052;-85
2022/09/12 05:10:56;;;;;;;67.10;31.38;;;8.90;6.20;;;;;;6247839;22;20035;-86
2022/09/12 05:13:43;;;;;;;63.20;30.00;;;8.90;7.20;;;;;;6227112;23;20028;-85
2022/09/12 05:16:32;;;;;;;67.82;30.83;;;8.70;7.70;;;;;;6223624;23;20095;-85
2022/09/12 05:19:20;;;;;;;69.72;33.22;;;8.70;6.20;;;;;;6248052;23;20024;-86
2022/09/12 05:22:08;;;;;;;75.18;33.13;;;8.70;4.60;;;;;;6225148;23;20102;-86
2022/09/12 05:24:55;;;;;;;72.70;32.65;;;8.70;4.20;;;;;;6245802;23;20028;-85
2022/09/12 05:27:42;;;;;;;72.15;33.50;;;8.70;2.70;;;;;;6224198;23;20031;-86
2022/09/12 05:30:35;;;;;;;72.55;33.30;;;8.80;1.80;;;;;;6246389;23;20502;-86
2022/09/12 05:33:25;;;;;;;89.38;38.53;;;8.80;1.50;;;;;;6244945;23;20028;-86
2022/09/12 05:36:18;;;;;;;82.38;36.20;;;9.00;1.60;;;;;;6246693;23;20566;-86
2022/09/12 05:39:07;;;;;;;80.22;37.10;;;9.00;2.60;;;;;;6248222;22;20118;-86
2022/09/12 05:41:54;;;;;;;87.97;39.33;;;9.30;4.40;;;;;;6246689;23;20050;-86
2022/09/12 05:44:44;;;;;;;71.22;35.38;;;9.60;6.50;;;;;;6245953;23;20030;-86
2022/09/12 05:47:31;;;;;;;78.63;36.35;;;9.60;13.40;;;;;;6246543;23;20024;-86
2022/09/12 05:50:19;;;;;;;82.90;35.03;;;9.60;20.10;;;;;;6248634;22;20039;-86
2022/09/12 05:53:08;;;;;;;76.80;36.70;;;9.60;20.20;;;;;;6245657;23;20107;-86
2022/09/12 05:56:09;;;;;;;68.13;33.72;;;9.70;19.50;;;;;;6247602;23;20038;-86
2022/09/12 05:59:02;;;;;;;65.50;32.40;;;9.70;20.70;;;;;;6245255;23;20422;-85
2022/09/12 06:01:51;;;;;;;61.17;31.52;;;9.70;23.60;;;;;;6225882;23;20095;-87
2022/09/12 06:04:39;;;;;;;65.20;32.17;;;9.70;23.70;;;;;;6223904;23;20052;-88
2022/09/12 06:07:26;;;;;;;59.40;30.27;;;9.90;23.30;;;;;;6226226;23;20078;-86
2022/09/12 06:10:16;;;;;;;70.55;34.50;;;10.00;24.20;;;;;;6244107;23;20046;-86
2022/09/12 06:13:03;;;;;;;61.08;31.50;;;10.10;29.90;;;;;;6223969;23;20292;-87
2022/09/12 06:15:51;;;;;;;68.45;33.40;;;10.20;32.20;;;;;;6248328;23;20019;-86
2022/09/12 06:18:39;;;;;;;73.88;34.63;;;10.40;34.00;;;;;;6249968;23;20016;-85
2022/09/12 06:21:34;;;;;;;64.32;32.85;;;10.50;38.70;;;;;;6242346;23;20086;-84
2022/09/12 06:24:24;;;;;;;57.65;30.13;;;10.70;43.20;;;;;;6252914;23;20020;-84
2022/09/12 06:27:14;;;;;;;57.88;31.40;;;10.90;48.90;;;;;;6253613;23;20024;-84
2022/09/12 06:30:01;;;;;;;55.85;30.10;;;11.00;53.50;;;;;;6245606;23;20100;-85
2022/09/12 06:32:50;;;;;;;49.20;28.95;;;11.20;59.70;;;;;;6225275;23;20020;-83
2022/09/12 06:35:39;;;;;;;50.85;28.63;;;11.40;71.20;;;;;;6221939;23;20490;-82
2022/09/12 06:38:27;;;;;;;40.95;26.15;;;11.50;56.60;;;;;;6225658;23;20020;-85
2022/09/12 06:41:14;;;;;;;38.22;25.45;;;11.50;10.80;;;;;;6223784;23;20028;-85
2022/09/12 06:44:05;;;;;;;44.88;26.42;;;11.70;1.00;;;;;;6226143;23;20091;-85
2022/09/12 06:46:53;;;;;;;44.28;27.65;;;12.00;1.00;;;;;;6244721;23;20028;-83
2022/09/12 06:49:40;;;;;;;34.72;23.17;;;12.30;1.00;;;;;;6246536;23;20106;-83
2022/09/12 06:52:28;;;;;;;28.60;20.65;;;12.40;88.60;;;;;;6223994;23;20020;-83
2022/09/12 06:55:15;;;;;;;26.55;19.15;;;12.50;1.00;;;;;;6244124;23;20312;-83
2022/09/12 06:58:09;;;;;;;29.10;18.80;;;12.60;99.90;;;;;;6246291;23;20024;-85
2022/09/12 07:01:13;;;;;;;23.73;18.40;;;12.70;99.90;;;;;;6245232;23;20024;-85
2022/09/12 07:04:02;;;;;;;21.00;16.73;;;12.80;1.00;;;;;;6249169;23;20024;-86
2022/09/12 07:06:49;;;;;;;20.45;15.95;;;13.00;99.90;;;;;;6245429;23;20091;-87
2022/09/12 07:09:39;;;;;;;25.13;16.85;;;13.20;99.90;;;;;;6225538;23;20028;-85
2022/09/12 07:12:28;;;;;;;19.77;15.32;;;13.40;99.30;;;;;;6246627;23;20491;-85
2022/09/12 07:15:15;;;;;;;16.30;14.00;;;13.60;1.00;;;;;;6223013;23;20537;-84
2022/09/12 07:18:03;;;;;;;17.98;13.25;;;13.90;1.00;;;;;;6223163;23;20020;-85
2022/09/12 07:20:50;;;;;;;17.42;12.07;;;14.20;99.90;;;;;;6241548;23;20043;-86
2022/09/12 07:23:38;;;;;;;17.65;11.18;;;14.60;1.00;;;;;;6243814;23;20099;-85
2022/09/12 07:26:27;;;;;;;13.57;10.82;;;14.70;99.90;;;;;;6245223;23;20107;-85
2022/09/12 07:29:16;;;;;;;14.70;10.27;;;14.80;99.90;;;;;;6244079;23;20020;-85
2022/09/12 07:32:26;;;;;;;12.30;9.90;;;14.80;99.90;;;;;;6247015;22;20024;-86
2022/09/12 07:35:15;;;;;;;12.85;9.48;;;15.10;4.90;;;;;;6245312;23;20035;-85
2022/09/12 07:38:04;;;;;;;11.38;9.00;;;15.20;1.00;;;;;;6247132;22;20118;-83
2022/09/12 07:41:16;;;;;;;10.52;7.97;;;15.60;1.00;;;;;;6247433;22;20103;-85
2022/09/12 07:44:06;;;;;;;9.65;6.85;;;15.80;1.00;;;;;;6246451;23;20024;-85
2022/09/12 07:46:56;;;;;;;8.88;6.72;;;16.00;99.90;;;;;;6246446;23;20024;-85
2022/09/12 07:49:44;;;;;;;6.90;5.47;;;16.50;99.90;;;;;;6244138;23;20024;-84
2022/09/12 07:52:32;;;;;;;9.20;6.07;;;16.90;99.90;;;;;;6245691;23;20020;-86
2022/09/12 07:55:20;;;;;;;8.48;5.18;;;17.10;99.90;;;;;;6246588;23;20027;-88
2022/09/12 07:58:07;;;;;;;5.47;4.68;;;17.30;99.90;;;;;;6247252;23;20047;-87
2022/09/12 08:01:04;;;;;;;5.82;5.20;;;17.70;99.90;;;;;;6247167;23;20316;-85
2022/09/12 08:03:57;;;;;;;5.63;4.80;;;18.00;99.90;;;;;;6223792;23;20315;-84
2022/09/12 08:06:47;;;;;;;4.75;4.35;;;18.30;99.90;;;;;;6226762;22;20020;-85
2022/09/12 08:09:35;;;;;;;6.00;5.10;;;18.80;99.90;;;;;;6248015;23;20082;-85
2022/09/12 08:12:22;;;;;;;9.27;5.25;;;19.10;99.90;;;;;;6247232;23;20050;-85
2022/09/12 08:15:09;;;;;;;5.18;3.70;;;19.70;99.90;;;;;;6245703;23;20024;-87
2022/09/12 08:17:57;;;;;;;4.32;2.42;;;20.70;99.90;;;;;;6246319;23;20410;-85
2022/09/12 08:20:45;;;;;;;4.88;2.63;;;21.60;99.90;;;;;;6225746;23;20035;-87
2022/09/12 08:23:35;;;;;;;3.33;2.10;;;22.60;82.10;;;;;;6245970;23;20028;-88
2022/09/12 08:26:23;;;;;;;3.70;1.70;;;23.40;46.20;;;;;;6245834;23;20609;-87
2022/09/12 08:29:11;;;;;;;2.13;1.73;;;23.60;16.30;;;;;;6247409;23;20025;-85
2022/09/12 08:31:59;;;;;;;1.88;1.77;;;23.40;15.70;;;;;;6246481;23;20028;-84
2022/09/12 08:34:46;;;;;;;3.05;1.88;;;23.10;8.30;;;;;;6245880;23;20030;-85
2022/09/12 08:37:36;;;;;;;1.85;1.58;;;23.20;2.70;;;;;;6247571;23;20367;-85
2022/09/12 08:40:24;;;;;;;1.90;1.50;;;23.60;2.60;;;;;;6245392;23;20050;-84
2022/09/12 08:43:36;;;;;;;2.15;1.63;;;24.30;1.00;;;;;;6247182;23;20103;-85
2022/09/12 08:46:27;;;;;;;;;;;24.60;1.00;;;;;;6245677;23;20038;-85
2022/09/12 08:49:34;;;;;;;4.18;1.60;;;25.30;1.00;;;;;;6248088;23;20066;-87
2022/09/12 08:52:53;;;;;;;4.10;1.70;;;25.20;1.00;;;;;;6223050;23;20020;-84
2022/09/12 08:55:48;;;;;;;4.10;1.95;;;25.20;1.00;;;;;;6245117;23;20078;-85
2022/09/12 08:58:44;;;;;;;1.52;1.40;;;25.00;1.00;;;;;;6244934;23;20315;-86
2022/09/12 09:01:41;;;;;;;1.55;1.45;;;25.80;1.00;;;;;;6248528;22;20024;-86
2022/09/12 09:04:51;;;;;;;2.15;1.10;;;26.40;1.00;;;;;;6226039;23;20032;-85
2022/09/12 09:08:01;;;;;;;4.72;1.35;;;27.10;1.00;;;;;;6230375;23;20024;-85
2022/09/12 09:11:03;;;;;;;2.65;1.40;;;26.60;1.00;;;;;;6232093;23;20087;-85
2022/09/12 09:17:11;;;;;;;2.30;1.30;;;26.70;1.00;;;;;;6248810;22;20052;-86
2022/09/12 09:19:58;;;;;;;3.15;1.30;;;26.60;1.00;;;;;;6247335;23;20051;-85
2022/09/12 09:22:54;;;;;;;2.35;1.20;;;26.50;1.00;;;;;;6248846;22;20170;-84
2022/09/12 09:26:09;;;;;;;2.42;1.48;;;26.90;1.00;;;;;;6245676;23;20107;-86
2022/09/12 09:29:04;;;;;;;1.73;1.15;;;26.80;1.00;;;;;;6244761;23;20038;-86
2022/09/12 09:31:58;;;;;;;1.38;1.20;;;26.90;1.00;;;;;;6248384;22;20032;-84
2022/09/12 09:34:47;;;;;;;1.20;1.10;;;26.60;1.00;;;;;;6247277;22;20083;-85
2022/09/12 09:37:57;;;;;;;1.17;0.80;;;27.10;1.00;;;;;;6247212;23;20442;-85
2022/09/12 09:40:52;;;;;;;1.70;1.05;;;27.90;1.00;;;;;;6248616;22;20304;-83
2022/09/12 09:43:39;;;;;;;1.10;0.90;;;28.20;1.00;;;;;;6248035;22;20099;-87
2022/09/12 09:46:26;;;;;;;1.52;0.95;;;28.30;1.00;;;;;;6224665;23;20063;-85
2022/09/12 09:49:16;;;;;;;1.00;0.90;;;26.70;1.00;;;;;;6244459;23;20427;-85
2022/09/12 09:52:07;;;;;;;1.45;1.13;;;26.50;1.00;;;;;;6245116;23;20020;-87
2022/09/12 09:54:59;;;;;;;2.33;1.10;;;27.00;1.00;;;;;;6246385;23;20079;-87
2022/09/12 09:57:47;;;;;;;1.67;0.80;;;27.70;1.00;;;;;;6247247;23;20034;-85
2022/09/12 10:00:36;;;;;;;0.90;0.90;;;28.70;1.00;;;;;;6245720;23;20103;-86
2022/09/12 10:03:38;;;;;;;1.05;0.75;;;29.00;1.00;;;;;;6246833;23;20032;-83
2022/09/12 10:06:31;;;;;;;0.98;0.73;;;29.00;1.00;;;;;;6245438;23;20028;-82
2022/09/12 10:09:26;;;;;;;1.45;0.80;;;29.60;1.00;;;;;;6224480;23;20089;-84
2022/09/12 10:12:30;;;;;;;2.35;1.20;;;29.90;1.00;;;;;;6244556;23;20111;-82
2022/09/12 10:15:22;;;;;;;0.82;0.82;;;30.30;1.00;;;;;;6222703;23;20024;-83
2022/09/12 10:18:09;;;;;;;1.05;0.95;;;29.60;1.00;;;;;;6224217;23;20039;-86
2022/09/12 10:21:00;;;;;;;0.85;0.85;;;28.30;1.00;;;;;;6244942;23;20102;-84
2022/09/12 10:23:58;;;;;;;3.63;1.00;;;27.20;1.00;;;;;;6245054;23;20051;-84
2022/09/12 10:26:54;;;;;;;1.50;1.00;;;27.20;1.00;;;;;;6244889;23;20154;-86
2022/09/12 10:29:47;;;;;;;1.73;0.80;;;28.50;1.00;;;;;;6223226;23;20391;-85
2022/09/12 10:32:43;;;;;;;2.50;0.80;;;29.70;1.00;;;;;;6245533;23;20032;-86
2022/09/12 10:35:43;;;;;;;0.73;0.73;;;30.70;1.00;;;;;;6244366;23;20043;-83
2022/09/12 10:38:31;;;;;;;1.52;0.80;;;30.70;1.00;;;;;;6244758;23;20052;-85
2022/09/12 10:41:22;;;;;;;1.27;0.80;;;30.80;1.00;;;;;;6244445;23;20051;-83
2022/09/12 10:44:24;;;;;;;3.65;1.20;;;30.40;1.00;;;;;;6243351;23;20058;-86
2022/09/12 10:47:20;;;;;;;1.42;1.15;;;28.90;1.00;;;;;;6245778;23;20028;-86
2022/09/12 10:50:29;;;;;;;0.88;0.70;;;29.00;1.00;;;;;;6245615;23;20117;-85
2022/09/12 10:53:21;;;;;;;0.93;0.93;;;29.90;1.00;;;;;;6244253;23;20020;-85
2022/09/12 10:56:11;;;;;;;;;;;30.30;1.00;;;;;;6246469;23;20075;-85
2022/09/12 10:59:15;;;;;;;1.65;0.70;;;30.10;1.00;;;;;;6244494;23;20251;-86
2022/09/12 11:02:20;;;;;;;1.00;0.70;;;30.70;1.00;;;;;;6246128;23;20466;-85
2022/09/12 11:05:35;;;;;;;1.10;0.80;;;30.40;1.00;;;;;;6225522;23;20037;-86
2022/09/12 11:08:28;;;;;;;0.70;0.70;;;29.80;1.00;;;;;;6216815;23;20028;-87
2022/09/12 11:11:44;;;;;;;0.57;0.57;;;29.50;1.00;;;;;;6245661;23;20362;-85
2022/09/12 11:14:57;;;;;;;1.27;0.70;;;30.10;1.00;;;;;;6246726;22;20048;-85
2022/09/12 11:18:12;;;;;;;1.25;0.88;;;30.30;1.00;;;;;;6220772;23;20055;-84
2022/09/12 11:21:21;;;;;;;2.50;1.50;;;30.40;1.00;;;;;;6245959;23;20072;-85
2022/09/12 11:24:29;;;;;;;1.83;0.85;;;30.20;1.00;;;;;;6248875;23;20179;-85
2022/09/12 11:27:21;;;;;;;0.70;0.70;;;30.70;1.00;;;;;;6226076;23;20113;-85
2022/09/12 11:30:13;;;;;;;;;;;31.70;1.00;;;;;;6227450;23;20099;-86
2022/09/12 11:33:17;;;;;;;2.60;1.00;;;30.20;1.00;;;;;;6247714;23;19916;-87
2022/09/12 11:36:10;;;;;;;0.55;0.50;;;30.30;1.00;;;;;;6228254;23;20028;-87
2022/09/12 11:39:02;;;;;;;1.42;0.70;;;30.70;1.00;;;;;;6247106;23;20051;-86
2022/09/12 11:42:01;;;;;;;1.05;0.68;;;30.10;1.00;;;;;;6227289;23;20104;-86
2022/09/12 11:45:16;;;;;;;1.30;0.60;;;28.70;1.00;;;;;;6247431;23;20094;-88
2022/09/12 11:48:11;;;;;;;1.42;0.73;;;29.00;1.00;;;;;;6248376;23;20032;-86
2022/09/12 11:51:01;;;;;;;0.98;0.77;;;30.10;1.00;;;;;;6249140;23;20055;-86
2022/09/12 11:54:08;;;;;;;0.77;0.70;;;30.10;1.00;;;;;;6257272;23;20072;-88
2022/09/12 11:57:29;;;;;;;1.08;0.70;;;30.90;1.00;;;;;;6261601;23;20052;-87
2022/09/12 12:00:35;;;;;;;0.82;0.60;;;31.50;1.00;;;;;;6260981;23;20024;-86
2022/09/12 12:03:22;;;;;;;1.27;0.50;;;31.70;1.00;;;;;;6263350;23;20035;-85
2022/09/12 12:06:35;;;;;;;1.00;0.45;;;31.60;1.00;;;;;;6240953;23;20038;-86
2022/09/12 12:09:25;;;;;;;3.13;0.90;;;30.90;1.00;;;;;;6272584;22;20012;-82
2022/09/12 12:12:19;;;;;;;0.65;0.47;;;30.90;1.00;;;;;;6252607;22;20015;-84
2022/09/12 12:15:14;;;;;;;2.63;0.80;;;30.70;1.00;;;;;;6252449;22;20060;-84
2022/09/12 12:18:17;;;;;;;2.67;0.52;;;31.00;1.00;;;;;;6270215;22;20020;-86
2022/09/12 12:21:35;;;;;;;0.95;0.50;;;32.90;1.00;;;;;;6246680;23;20020;-86
2022/09/12 12:24:32;;;;;;;0.90;0.50;;;32.50;1.00;;;;;;6269001;23;20141;-85
2022/09/12 12:27:47;;;;;;;0.70;0.57;;;30.60;1.00;;;;;;6247178;23;20039;-85
2022/09/12 12:30:34;;;;;;;1.20;0.65;;;30.20;1.00;;;;;;6261629;22;20066;-87
2022/09/12 12:33:24;;;;;;;1.10;0.55;;;30.80;1.00;;;;;;6250703;23;20047;-84
2022/09/12 12:36:28;;;;;;;1.58;0.70;;;32.00;1.00;;;;;;6256866;23;20020;-88
2022/09/12 12:39:31;;;;;;;1.05;0.70;;;31.90;1.00;;;;;;6251076;23;20024;-88
2022/09/12 12:42:33;;;;;;;0.50;0.50;;;31.50;1.00;;;;;;6254334;23;20028;-86
2022/09/12 12:45:24;;;;;;;0.82;0.63;;;31.60;1.00;;;;;;6226660;23;20028;-85
2022/09/12 12:48:17;;;;;;;1.00;0.80;;;31.90;1.00;;;;;;6247613;23;20024;-85
2022/09/12 12:51:35;;;;;;;1.58;0.60;;;30.90;1.00;;;;;;6226187;23;20028;-88
2022/09/12 12:54:40;;;;;;;1.58;0.70;;;32.80;1.00;;;;;;6226711;23;20105;-86
2022/09/12 12:57:29;;;;;;;1.05;0.50;;;34.90;1.00;;;;;;6247648;23;20027;-86
2022/09/12 13:00:22;;;;;;;2.13;0.50;;;35.20;1.00;;;;;;6248196;23;20131;-87
2022/09/12 13:03:29;;;;;;;1.02;0.55;;;34.80;1.00;;;;;;6247331;23;20020;-85
2022/09/12 13:06:42;;;;;;;1.85;0.60;;;34.00;1.00;;;;;;6244669;23;20032;-86
2022/09/12 13:09:42;;;;;;;0.80;0.47;;;32.90;1.00;;;;;;6248517;23;20273;-83
2022/09/12 13:12:50;;;;;;;1.75;0.57;;;32.10;1.00;;;;;;6247958;22;20035;-85
2022/09/12 13:15:38;;;;;;;0.52;0.40;;;31.80;1.00;;;;;;6246786;23;20119;-85
2022/09/12 13:18:40;;;;;;;1.40;0.70;;;32.50;1.00;;;;;;6224348;23;20024;-85
2022/09/12 13:21:27;;;;;;;1.48;0.50;;;33.40;1.00;;;;;;6246119;23;20074;-85
2022/09/12 13:24:15;;;;;;;1.65;0.38;;;33.70;1.00;;;;;;6244901;23;20391;-85
2022/09/12 13:27:21;;;;;;;1.05;0.40;;;34.60;1.00;;;;;;6247683;22;20051;-85
2022/09/12 13:30:14;;;;;;;0.38;0.38;;;35.40;1.00;;;;;;6224956;23;20028;-86
2022/09/12 13:33:27;;;;;;;0.70;0.40;;;36.60;1.00;;;;;;6247668;23;20047;-86
2022/09/12 13:36:42;;;;;;;2.90;0.50;;;34.80;1.00;;;;;;6227819;23;20021;-84
2022/09/12 13:39:48;;;;;;;2.03;0.60;;;34.20;1.00;;;;;;6244441;23;20024;-86
2022/09/12 13:43:07;;;;;;;0.77;0.70;;;33.90;1.00;;;;;;6247470;23;20423;-87
2022/09/12 13:45:57;;;;;;;0.60;0.60;;;34.00;1.00;;;;;;6224120;23;20082;-88
2022/09/12 13:48:48;;;;;;;1.13;0.50;;;34.20;1.00;;;;;;6224632;23;20024;-90
2022/09/12 13:51:36;;;;;;;0.90;0.50;;;34.40;1.00;;;;;;6224445;23;20270;-90
2022/09/12 13:54:23;;;;;;;1.48;0.55;;;34.60;1.00;;;;;;6246739;23;20598;-87
2022/09/12 13:57:36;;;;;;;1.65;0.80;;;33.80;1.00;;;;;;6246200;23;20020;-86
2022/09/12 14:00:24;;;;;;;0.68;0.68;;;32.70;1.00;;;;;;6247120;22;20051;-85
2022/09/12 14:06:51;;;;;;;0.90;0.60;;;34.40;1.00;;;;;;6247318;23;20104;-86
2022/09/12 14:09:55;;;;;;;0.73;0.50;;;34.80;1.00;;;;;;6246868;23;20074;-86
2022/09/12 14:12:44;;;;;;;1.17;0.50;;;34.10;1.00;;;;;;6245697;23;20073;-88
2022/09/12 14:15:58;;;;;;;6.13;0.50;;;34.60;1.00;;;;;;6247099;23;20008;-87
2022/09/12 14:18:47;;;;;;;0.52;0.52;;;34.60;1.00;;;;;;6225860;23;20024;-85
2022/09/12 14:21:35;;;;;;;0.90;0.57;;;34.60;1.00;;;;;;6246759;23;20088;-87
2022/09/12 14:24:27;;;;;;;1.58;0.50;;;33.90;1.00;;;;;;6223413;23;20378;-87
2022/09/12 14:27:27;;;;;;;0.93;0.60;;;33.90;1.00;;;;;;6245781;23;20028;-86
2022/09/12 14:30:48;;;;;;;1.10;0.80;;;33.60;1.00;;;;;;6226615;23;20035;-87
2022/09/12 14:34:08;;;;;;;1.20;0.60;;;33.20;1.00;;;;;;6224042;23;20020;-85
2022/09/12 14:36:56;;;;;;;0.77;0.65;;;33.00;1.00;;;;;;6221991;23;20046;-87
2022/09/12 14:39:47;;;;;;;0.75;0.50;;;32.00;1.00;;;;;;6226088;23;20039;-88
2022/09/12 14:42:34;;;;;;;1.85;0.70;;;32.70;1.00;;;;;;6242028;23;20450;-84
2022/09/12 14:45:29;;;;;;;2.58;0.70;;;32.90;1.00;;;;;;6243709;23;20028;-85
2022/09/12 14:48:18;;;;;;;0.52;0.50;;;33.00;1.00;;;;;;6247187;23;20052;-85
2022/09/12 14:51:24;;;;;;;0.60;0.60;;;33.90;1.00;;;;;;6245751;23;20036;-85
2022/09/12 14:54:27;;;;;;;1.38;1.00;;;34.20;1.00;;;;;;6246566;23;20020;-85
2022/09/12 14:57:35;;;;;;;1.17;0.70;;;34.10;1.00;;;;;;6246309;23;20052;-84
2022/09/12 15:00:29;;;;;;;3.28;0.90;;;32.30;1.00;;;;;;6244833;23;20424;-85
2022/09/12 15:03:25;;;;;;;1.00;0.60;;;31.50;1.00;;;;;;6224667;23;20027;-86
2022/09/12 15:06:35;;;;;;;2.03;1.00;;;32.20;1.00;;;;;;6247932;22;20028;-85
2022/09/12 15:09:22;;;;;;;0.70;0.60;;;33.20;1.00;;;;;;6244421;23;20028;-87
2022/09/12 15:12:13;;;;;;;1.15;0.70;;;33.80;1.00;;;;;;6246752;22;20030;-86
2022/09/12 15:15:12;;;;;;;0.75;0.60;;;34.20;1.00;;;;;;6204331;23;20078;-87
2022/09/12 15:18:08;;;;;;;0.65;0.50;;;34.00;1.00;;;;;;6246699;23;20035;-87